createdAt,value
2023-04-10T00:02:49.553Z,94.50
2023-04-10T00:05:54.604Z,94.32
2023-04-10T00:08:56.968Z,94.03
2023-04-10T00:11:59.438Z,94.30
2023-04-10T00:15:01.649Z,94.92
2023-04-10T00:18:04.374Z,94.82
2023-04-10T00:21:07.104Z,94.20
2023-04-10T00:24:09.685Z,94.32
2023-04-10T00:27:11.847Z,94.43
2023-04-10T00:30:14.449Z,94.94
2023-04-10T00:33:16.610Z,94.76
2023-04-10T00:36:19.399Z,94.82
2023-04-10T00:39:21.575Z,95.31
2023-04-10T00:42:24.056Z,95.16
2023-04-10T00:45:26.798Z,94.85
2023-04-10T00:48:29.617Z,95.07
2023-04-10T00:51:32.282Z,94.87
2023-04-10T00:54:36.487Z,95.15
2023-04-10T00:57:39.369Z,94.95
2023-04-10T01:00:42.205Z,95.07
2023-04-10T01:03:45.536Z,95.40
2023-04-10T01:06:54.310Z,95.02
2023-04-10T01:10:38.656Z,96.27
2023-04-10T01:13:50.330Z,95.41
2023-04-10T01:17:24.195Z,95.27
2023-04-10T01:20:30.999Z,95.37
2023-04-10T01:23:45.400Z,95.46
2023-04-10T01:27:12.718Z,95.91
2023-04-10T01:30:18.440Z,96.16
2023-04-10T01:33:24.637Z,95.03
2023-04-10T01:36:34.351Z,94.57
2023-04-10T01:39:41.536Z,95.20
2023-04-10T01:42:50.597Z,95.22
2023-04-10T01:45:54.085Z,96.41
2023-04-10T01:48:58.554Z,96.19
2023-04-10T01:52:02.136Z,96.84
2023-04-10T01:55:07.822Z,97.50
2023-04-10T01:58:11.074Z,96.58
2023-04-10T02:01:29.183Z,95.96
2023-04-10T02:04:32.731Z,96.42
2023-04-10T02:07:50.536Z,95.86
2023-04-10T02:11:15.397Z,95.26
2023-04-10T02:14:22.171Z,95.56
2023-04-10T02:17:28.757Z,95.23
2023-04-10T02:20:32.421Z,95.57
2023-04-10T02:23:35.583Z,95.48
2023-04-10T02:27:04.251Z,96.41
2023-04-10T02:30:07.212Z,96.23
2023-04-10T02:33:10.151Z,95.91
2023-04-10T02:36:12.854Z,95.76
2023-04-10T02:39:15.433Z,96.40
2023-04-10T02:42:20.710Z,97.15
2023-04-10T02:45:23.867Z,96.38
2023-04-10T02:48:26.806Z,96.50
2023-04-10T02:51:29.368Z,95.79
2023-04-10T02:54:31.564Z,96.27
2023-04-10T02:57:34.927Z,96.64
2023-04-10T03:00:38.195Z,97.22
2023-04-10T03:03:42.058Z,97.08
2023-04-10T03:06:44.345Z,97.10
2023-04-10T03:09:46.835Z,97.44
2023-04-10T03:12:49.025Z,96.86
2023-04-10T03:15:51.499Z,97.33
2023-04-10T03:18:53.938Z,96.47
2023-04-10T03:21:56.534Z,96.56
2023-04-10T03:24:59.393Z,96.52
2023-04-10T03:28:02.053Z,96.48
2023-04-10T03:31:06.108Z,97.83
2023-04-10T03:34:09.029Z,98.54
2023-04-10T03:37:11.186Z,98.64
2023-04-10T03:40:13.787Z,98.92
2023-04-10T03:43:16.178Z,98.33
2023-04-10T03:46:18.781Z,97.91
2023-04-10T03:49:21.234Z,97.32
2023-04-10T03:52:23.945Z,97.94
2023-04-10T03:55:26.232Z,98.40
2023-04-10T03:58:29.415Z,98.21
2023-04-10T04:01:33.098Z,97.88
2023-04-10T04:04:36.713Z,97.30
2023-04-10T04:07:40.530Z,97.54
2023-04-10T04:10:43.526Z,97.90
2023-04-10T04:13:46.483Z,97.90
2023-04-10T04:16:49.515Z,97.93
2023-04-10T04:19:56.676Z,97.13
2023-04-10T04:22:59.552Z,98.63
2023-04-10T04:26:05.905Z,98.92
2023-04-10T04:29:09.324Z,98.66
2023-04-10T04:32:11.736Z,98.32
2023-04-10T04:35:14.732Z,98.39
2023-04-10T04:38:17.063Z,99.01
2023-04-10T04:41:20.742Z,98.79
2023-04-10T04:44:27.371Z,98.93
2023-04-10T04:47:32.767Z,98.56
2023-04-10T04:50:40.605Z,98.25
2023-04-10T04:53:46.527Z,98.68
2023-04-10T04:56:48.834Z,98.79
2023-04-10T04:59:51.828Z,98.64
2023-04-10T05:02:54.127Z,98.67
2023-04-10T05:05:57.083Z,98.51
2023-04-10T05:09:00.050Z,98.97
2023-04-10T05:12:03.889Z,98.20
2023-04-10T05:15:09.385Z,99.04
2023-04-10T05:18:13.804Z,99.05
2023-04-10T05:21:16.707Z,99.07
2023-04-10T05:24:19.267Z,98.57
2023-04-10T05:27:22.577Z,99.10
2023-04-10T05:30:27.944Z,98.97
2023-04-10T05:33:30.242Z,98.96
2023-04-10T05:36:36.786Z,98.71
2023-04-10T05:39:39.294Z,98.81
2023-04-10T05:42:42.321Z,98.64
2023-04-10T05:45:45.443Z,98.64
2023-04-10T05:48:49.639Z,98.42
2023-04-10T05:51:53.359Z,98.23
2023-04-10T05:54:57.600Z,97.63
2023-04-10T05:58:00.149Z,98.05
2023-04-10T06:01:04.288Z,97.84
2023-04-10T06:04:08.379Z,97.74
2023-04-10T06:07:11.266Z,97.31
2023-04-10T06:10:13.822Z,98.19
2023-04-10T06:13:16.131Z,97.63
2023-04-10T06:16:18.899Z,97.77
2023-04-10T06:19:21.616Z,97.24
2023-04-10T06:22:24.126Z,97.42
2023-04-10T06:25:26.625Z,96.97
2023-04-10T06:28:29.508Z,96.54
2023-04-10T06:31:34.782Z,96.04
2023-04-10T06:34:37.328Z,95.02
2023-04-10T06:37:40.753Z,95.86
2023-04-10T06:40:43.679Z,94.90
2023-04-10T06:43:46.263Z,94.20
2023-04-10T06:46:48.729Z,93.28
2023-04-10T06:49:50.916Z,93.31
2023-04-10T06:52:55.863Z,92.46
2023-04-10T06:56:00.261Z,92.91
2023-04-10T06:59:05.337Z,92.33
2023-04-10T07:02:07.827Z,91.44
2023-04-10T07:05:10.358Z,91.17
2023-04-10T07:08:12.523Z,90.07
2023-04-10T07:11:15.087Z,88.86
2023-04-10T07:14:17.248Z,87.76
2023-04-10T07:17:20.223Z,86.42
2023-04-10T07:20:22.408Z,80.08
2023-04-10T07:23:24.823Z,79.54
2023-04-10T07:26:27.024Z,72.81
2023-04-10T07:29:30.815Z,73.02
2023-04-10T07:32:34.995Z,70.16
2023-04-10T07:35:37.619Z,69.82
2023-04-10T07:38:39.873Z,67.23
2023-04-10T07:41:42.444Z,67.55
2023-04-10T07:44:44.646Z,64.44
2023-04-10T07:47:47.678Z,60.71
2023-04-10T07:50:50.092Z,55.81
2023-04-10T07:53:52.494Z,54.05
2023-04-10T07:56:54.666Z,53.74
2023-04-10T07:59:57.266Z,51.80
2023-04-10T08:02:59.959Z,50.99
2023-04-10T08:06:02.651Z,50.88
2023-04-10T08:09:04.933Z,46.48
2023-04-10T08:12:07.354Z,47.11
2023-04-10T08:15:09.891Z,45.74
2023-04-10T08:18:12.296Z,43.70
2023-04-10T08:21:14.447Z,44.00
2023-04-10T08:24:19.790Z,42.48
2023-04-10T08:27:21.947Z,40.93
2023-04-10T08:30:24.489Z,39.59
2023-04-10T08:33:26.724Z,37.59
2023-04-10T08:36:29.532Z,37.21
2023-04-10T08:39:31.735Z,34.94
2023-04-10T08:42:34.712Z,35.49
2023-04-10T08:45:40.999Z,34.87
2023-04-10T08:48:53.100Z,34.64
2023-04-10T08:51:57.680Z,32.52
2023-04-10T08:55:05.423Z,33.57
2023-04-10T08:58:08.666Z,32.51
2023-04-10T09:01:13.929Z,32.44
2023-04-10T09:04:19.036Z,32.38
2023-04-10T09:07:23.240Z,31.47
2023-04-10T09:10:25.412Z,30.80
2023-04-10T09:13:38.020Z,31.31
2023-04-10T09:16:40.340Z,31.56
2023-04-10T09:19:44.572Z,31.89
2023-04-10T09:22:46.727Z,32.84
2023-04-10T09:25:51.094Z,32.50
2023-04-10T09:29:07.153Z,32.98
2023-04-10T09:32:09.916Z,33.95
2023-04-10T09:35:16.035Z,34.45
2023-04-10T09:38:20.544Z,33.19
2023-04-10T09:41:22.762Z,34.56
2023-04-10T09:44:38.110Z,34.80
2023-04-10T09:47:40.383Z,35.48
2023-04-10T09:50:43.449Z,35.77
2023-04-10T09:53:50.481Z,35.11
2023-04-10T09:56:53.710Z,34.10
2023-04-10T09:59:57.482Z,34.54
2023-04-10T10:03:03.177Z,35.50
2023-04-10T10:06:06.326Z,35.33
2023-04-10T10:09:09.042Z,37.20
2023-04-10T10:12:12.770Z,34.99
2023-04-10T10:15:41.912Z,36.41
2023-04-10T10:19:04.541Z,36.45
2023-04-10T10:22:09.121Z,35.61
2023-04-10T10:25:13.094Z,36.56
2023-04-10T10:28:17.990Z,36.44
2023-04-10T10:31:22.552Z,37.09
2023-04-10T10:34:25.718Z,37.26
2023-04-10T10:37:29.418Z,37.43
2023-04-10T10:40:38.670Z,37.65
2023-04-10T10:44:06.467Z,39.46
2023-04-10T10:47:19.764Z,38.92
2023-04-10T10:50:25.230Z,40.23
2023-04-10T10:53:42.441Z,38.82
2023-04-10T10:56:44.889Z,40.59
2023-04-10T10:59:46.992Z,40.00
2023-04-10T11:03:07.772Z,40.16
2023-04-10T11:06:12.881Z,41.11
2023-04-10T11:09:51.008Z,41.92
2023-04-10T11:13:17.040Z,43.37
2023-04-10T11:16:21.274Z,43.58
2023-04-10T11:19:26.099Z,45.28
2023-04-10T11:22:29.009Z,44.96
2023-04-10T11:25:54.189Z,44.95
2023-04-10T11:28:56.780Z,44.57
2023-04-10T11:32:01.556Z,45.43
2023-04-10T11:35:05.274Z,44.73
2023-04-10T11:38:18.198Z,44.89
2023-04-10T11:41:20.950Z,46.61
2023-04-10T11:44:26.412Z,44.84
2023-04-10T11:47:28.932Z,43.68
2023-04-10T11:50:35.907Z,43.98
2023-04-10T11:53:39.674Z,44.82
2023-04-10T11:56:44.806Z,44.50
2023-04-10T11:59:51.401Z,44.19
2023-04-10T12:02:53.848Z,45.41
2023-04-10T12:05:56.590Z,44.76
2023-04-10T12:08:58.793Z,45.26
2023-04-10T12:12:01.481Z,45.28
2023-04-10T12:15:04.178Z,46.09
2023-04-10T12:18:06.803Z,47.86
2023-04-10T12:21:09.175Z,49.10
2023-04-10T12:24:12.697Z,49.59
2023-04-10T12:27:23.197Z,49.45
2023-04-10T12:30:26.002Z,46.33
2023-04-10T12:33:28.234Z,47.74
2023-04-10T12:36:34.242Z,46.73
2023-04-10T12:39:36.565Z,48.64
2023-04-10T12:42:42.548Z,47.62
2023-04-10T12:45:45.749Z,48.07
2023-04-10T12:48:48.239Z,48.37
2023-04-10T12:51:51.861Z,47.29
2023-04-10T12:54:54.328Z,47.57
2023-04-10T12:57:56.986Z,49.24
2023-04-10T13:01:04.128Z,49.41
2023-04-10T13:04:06.647Z,49.32
2023-04-10T13:07:09.204Z,48.28
2023-04-10T13:10:11.445Z,46.77
2023-04-10T13:13:14.348Z,46.07
2023-04-10T13:16:16.882Z,46.18
2023-04-10T13:19:19.368Z,47.58
2023-04-10T13:22:21.616Z,47.41
2023-04-10T13:25:24.168Z,47.59
2023-04-10T13:28:26.408Z,45.49
2023-04-10T13:31:29.109Z,46.27
2023-04-10T13:34:35.127Z,46.14
2023-04-10T13:37:37.595Z,45.51
2023-04-10T13:40:39.721Z,45.41
2023-04-10T13:43:42.137Z,47.01
2023-04-10T13:46:44.403Z,47.27
2023-04-10T13:49:46.877Z,46.26
2023-04-10T13:52:49.623Z,47.32
2023-04-10T13:55:53.068Z,47.00
2023-04-10T13:58:55.433Z,47.70
2023-04-10T14:01:58.276Z,47.56
2023-04-10T14:05:00.783Z,46.89
2023-04-10T14:08:02.978Z,45.60
2023-04-10T14:11:05.723Z,44.67
2023-04-10T14:14:07.944Z,44.79
2023-04-10T14:17:10.504Z,46.07
2023-04-10T14:20:13.275Z,43.81
2023-04-10T14:23:18.868Z,44.36
2023-04-10T14:26:21.529Z,43.81
2023-04-10T14:29:37.264Z,43.00
2023-04-10T14:32:41.697Z,43.54
2023-04-10T14:35:45.434Z,44.21
2023-04-10T14:38:47.656Z,44.52
2023-04-10T14:41:50.740Z,43.34
2023-04-10T14:44:53.209Z,44.73
2023-04-10T14:47:56.516Z,42.72
2023-04-10T14:50:59.126Z,43.88
2023-04-10T14:54:02.425Z,44.09
2023-04-10T14:57:04.827Z,44.76
2023-04-10T15:00:07.837Z,43.84
2023-04-10T15:03:10.099Z,42.87
2023-04-10T15:06:12.569Z,43.78
2023-04-10T15:09:14.761Z,43.93
2023-04-10T15:12:17.245Z,43.71
2023-04-10T15:15:19.387Z,42.40
2023-04-10T15:18:21.854Z,43.14
2023-04-10T15:21:24.068Z,42.34
2023-04-10T15:24:27.178Z,41.77
2023-04-10T15:27:31.228Z,41.89
2023-04-10T15:30:33.933Z,42.24
2023-04-10T15:33:37.899Z,41.76
2023-04-10T15:36:40.321Z,41.04
2023-04-10T15:39:42.526Z,41.26
2023-04-10T15:42:44.944Z,42.04
2023-04-10T15:45:47.148Z,41.25
2023-04-10T15:48:49.963Z,41.35
2023-04-10T15:51:52.476Z,41.12
2023-04-10T15:54:54.951Z,40.66
2023-04-10T15:57:57.139Z,41.35
2023-04-10T16:00:59.991Z,40.98
2023-04-10T16:04:02.530Z,41.53
2023-04-10T16:07:05.104Z,42.25
2023-04-10T16:10:11.560Z,41.68
2023-04-10T16:13:13.768Z,42.29
2023-04-10T16:16:16.862Z,41.30
2023-04-10T16:19:19.180Z,42.03
2023-04-10T16:22:21.751Z,41.34
2023-04-10T16:25:24.354Z,41.33
2023-04-10T16:28:28.096Z,41.18
2023-04-10T16:31:30.997Z,41.83
2023-04-10T16:34:33.495Z,42.49
2023-04-10T16:37:36.112Z,41.69
2023-04-10T16:40:38.767Z,42.40
2023-04-10T16:43:40.872Z,41.96
2023-04-10T16:46:43.426Z,41.60
2023-04-10T16:49:45.943Z,41.54
2023-04-10T16:52:48.360Z,41.92
2023-04-10T16:55:58.547Z,41.66
2023-04-10T16:59:01.028Z,41.88
2023-04-10T17:02:03.252Z,41.79
2023-04-10T17:05:06.170Z,41.70
2023-04-10T17:08:08.407Z,41.87
2023-04-10T17:11:12.728Z,42.12
2023-04-10T17:14:16.005Z,42.86
2023-04-10T17:17:18.602Z,42.85
2023-04-10T17:20:21.004Z,43.86
2023-04-10T17:23:23.498Z,43.60
2023-04-10T17:26:25.818Z,43.22
2023-04-10T17:29:28.452Z,44.31
2023-04-10T17:32:30.708Z,44.48
2023-04-10T17:35:33.172Z,44.16
2023-04-10T17:38:37.192Z,44.68
2023-04-10T17:41:39.826Z,44.92
2023-04-10T17:44:42.021Z,45.15
2023-04-10T17:47:44.725Z,45.41
2023-04-10T17:50:48.185Z,45.87
2023-04-10T17:53:50.600Z,46.62
2023-04-10T17:56:53.042Z,46.50
2023-04-10T17:59:55.531Z,47.33
2023-04-10T18:03:03.633Z,47.37
2023-04-10T18:06:07.296Z,47.87
2023-04-10T18:09:09.429Z,49.63
2023-04-10T18:12:11.836Z,49.41
2023-04-10T18:15:14.474Z,49.63
2023-04-10T18:18:16.908Z,51.25
2023-04-10T18:21:19.071Z,50.95
2023-04-10T18:24:21.520Z,51.42
2023-04-10T18:27:23.632Z,52.91
2023-04-10T18:30:26.122Z,54.03
2023-04-10T18:33:28.268Z,54.80
2023-04-10T18:36:31.430Z,55.72
2023-04-10T18:39:33.740Z,57.29
2023-04-10T18:42:36.246Z,56.84
2023-04-10T18:45:38.386Z,59.30
2023-04-10T18:48:43.993Z,61.80
2023-04-10T18:51:46.157Z,61.33
2023-04-10T18:54:48.626Z,61.33
2023-04-10T18:57:50.886Z,64.23
2023-04-10T19:00:53.864Z,62.70
2023-04-10T19:03:56.374Z,63.64
2023-04-10T19:06:59.061Z,64.28
2023-04-10T19:10:01.239Z,65.71
2023-04-10T19:13:03.784Z,67.42
2023-04-10T19:16:06.353Z,74.03
2023-04-10T19:19:08.766Z,78.02
2023-04-10T19:22:10.977Z,82.02
2023-04-10T19:25:13.401Z,82.12
2023-04-10T19:28:15.522Z,84.01
2023-04-10T19:31:18.012Z,84.48
2023-04-10T19:34:20.432Z,85.82
2023-04-10T19:37:23.740Z,85.64
2023-04-10T19:40:26.250Z,85.54
2023-04-10T19:43:28.848Z,85.82
2023-04-10T19:46:31.110Z,84.51
2023-04-10T19:49:36.616Z,84.77
2023-04-10T19:52:38.819Z,85.81
2023-04-10T19:55:41.413Z,86.51
2023-04-10T19:58:46.878Z,86.70
2023-04-10T20:01:49.846Z,86.39
2023-04-10T20:04:52.477Z,87.09
2023-04-10T20:07:55.349Z,86.43
2023-04-10T20:10:58.419Z,85.38
2023-04-10T20:14:00.850Z,84.59
2023-04-10T20:17:03.264Z,87.28
2023-04-10T20:20:05.967Z,86.54
2023-04-10T20:23:08.477Z,85.73
2023-04-10T20:26:12.511Z,86.74
2023-04-10T20:29:14.983Z,86.77
2023-04-10T20:32:17.378Z,88.27
2023-04-10T20:35:19.832Z,88.82
2023-04-10T20:38:22.010Z,90.28
2023-04-10T20:41:26.244Z,91.23
2023-04-10T20:44:28.588Z,93.42
2023-04-10T20:47:31.188Z,93.46
2023-04-10T20:50:33.461Z,92.95
2023-04-10T20:53:35.940Z,93.69
2023-04-10T20:56:43.382Z,93.96
2023-04-10T20:59:46.482Z,95.40
2023-04-10T21:02:48.802Z,95.44
2023-04-10T21:05:53.481Z,95.23
2023-04-10T21:08:56.294Z,96.60
2023-04-10T21:11:58.800Z,95.78
2023-04-10T21:15:00.953Z,96.79
2023-04-10T21:18:03.560Z,98.20
2023-04-10T21:21:05.992Z,95.35
2023-04-10T21:24:08.483Z,94.36
2023-04-10T21:27:11.128Z,93.30
2023-04-10T21:30:13.648Z,90.51
2023-04-10T21:33:15.913Z,91.56
2023-04-10T21:36:18.369Z,90.60
2023-04-10T21:39:20.704Z,90.82
2023-04-10T21:42:23.175Z,91.41
2023-04-10T21:45:25.284Z,89.67
2023-04-10T21:48:27.662Z,89.62
2023-04-10T21:51:29.925Z,90.86
2023-04-10T21:54:32.837Z,91.27
2023-04-10T21:57:34.967Z,92.25
2023-04-10T22:00:37.434Z,91.07
2023-04-10T22:03:39.992Z,92.81
2023-04-10T22:06:42.306Z,91.49
2023-04-10T22:09:44.808Z,92.09
2023-04-10T22:12:48.431Z,93.16
2023-04-10T22:15:51.546Z,93.40
2023-04-10T22:18:53.892Z,94.56
2023-04-10T22:21:56.922Z,96.81
2023-04-10T22:24:59.187Z,98.89
2023-04-10T22:28:01.712Z,100.00
2023-04-10T22:31:03.984Z,98.60
2023-04-10T22:34:08.446Z,99.53
2023-04-10T22:37:10.761Z,99.99
2023-04-10T22:40:13.237Z,99.55
2023-04-10T22:43:15.408Z,100.00
2023-04-10T22:46:17.930Z,99.42
2023-04-10T22:49:20.112Z,98.59
2023-04-10T22:52:22.606Z,99.46
2023-04-10T22:55:24.979Z,98.72
2023-04-10T22:58:27.446Z,98.96
2023-04-10T23:01:29.631Z,98.51
2023-04-10T23:04:32.392Z,98.46
2023-04-10T23:07:34.589Z,98.75
2023-04-10T23:10:37.030Z,98.98
2023-04-10T23:13:39.215Z,99.10
2023-04-10T23:16:43.744Z,99.31
2023-04-10T23:19:45.925Z,99.89
2023-04-10T23:22:48.366Z,99.40
2023-04-10T23:25:57.757Z,99.37
2023-04-10T23:29:01.156Z,98.88
2023-04-10T23:32:03.413Z,98.06
2023-04-10T23:35:06.240Z,100.00
2023-04-10T23:38:08.732Z,99.65
2023-04-10T23:41:11.185Z,100.00
2023-04-10T23:44:13.437Z,100.00
2023-04-10T23:47:16.107Z,100.00
2023-04-10T23:50:18.425Z,100.00
2023-04-10T23:53:20.849Z,99.59
2023-04-10T23:56:28.868Z,99.21
2023-04-10T23:59:31.370Z,98.94
